sensor_id;sensor_type;location;lat;lon;timestamp;pressure;altitude;pressure_sealevel;temperature;humidity
55679;BME280;41573;51.446;-2.018;2023-06-22T00:00:51;100305.09;;;16.48;100.00
55679;BME280;41573;51.446;-2.018;2023-06-22T00:03:21;100300.72;;;16.47;100.00
55679;BME280;41573;51.446;-2.018;2023-06-22T00:05:47;100286.00;;;16.42;100.00
55679;BME280;41573;51.446;-2.018;2023-06-22T00:08:13;100291.63;;;16.38;100.00
55679;BME280;41573;51.446;-2.018;2023-06-22T00:10:39;100287.25;;;16.37;100.00
55679;BME280;41573;51.446;-2.018;2023-06-22T00:13:05;100283.69;;;16.37;100.00
55679;BME280;41573;51.446;-2.018;2023-06-22T00:15:31;100274.22;;;16.43;100.00
55679;BME280;41573;51.446;-2.018;2023-06-22T00:17:56;100268.31;;;16.39;100.00
55679;BME280;41573;51.446;-2.018;2023-06-22T00:20:23;100279.44;;;16.34;100.00
55679;BME280;41573;51.446;-2.018;2023-06-22T00:22:53;100281.97;;;16.26;100.00
55679;BME280;41573;51.446;-2.018;2023-06-22T00:25:18;100290.28;;;16.23;100.00
55679;BME280;41573;51.446;-2.018;2023-06-22T00:27:44;100275.19;;;16.22;100.00
55679;BME280;41573;51.446;-2.018;2023-06-22T00:30:09;100270.94;;;16.19;100.00
55679;BME280;41573;51.446;-2.018;2023-06-22T00:32:35;100272.78;;;16.29;100.00
55679;BME280;41573;51.446;-2.018;2023-06-22T00:35:00;100276.63;;;16.26;100.00
55679;BME280;41573;51.446;-2.018;2023-06-22T00:37:26;100282.97;;;16.25;100.00
55679;BME280;41573;51.446;-2.018;2023-06-22T00:39:55;100295.09;;;16.19;100.00
55679;BME280;41573;51.446;-2.018;2023-06-22T00:42:22;100287.03;;;16.19;100.00
55679;BME280;41573;51.446;-2.018;2023-06-22T00:44:47;100302.56;;;16.16;100.00
55679;BME280;41573;51.446;-2.018;2023-06-22T00:47:17;100299.88;;;16.16;100.00
55679;BME280;41573;51.446;-2.018;2023-06-22T00:49:43;100299.59;;;16.09;100.00
55679;BME280;41573;51.446;-2.018;2023-06-22T00:52:10;100282.78;;;16.17;100.00
55679;BME280;41573;51.446;-2.018;2023-06-22T00:54:40;100280.09;;;16.17;100.00
55679;BME280;41573;51.446;-2.018;2023-06-22T00:57:11;100281.94;;;16.16;100.00
55679;BME280;41573;51.446;-2.018;2023-06-22T00:59:37;100286.22;;;16.19;100.00
55679;BME280;41573;51.446;-2.018;2023-06-22T01:02:04;100267.41;;;16.19;100.00
55679;BME280;41573;51.446;-2.018;2023-06-22T01:04:37;100265.41;;;16.21;100.00
55679;BME280;41573;51.446;-2.018;2023-06-22T01:07:36;100259.06;;;16.22;100.00
55679;BME280;41573;51.446;-2.018;2023-06-22T01:10:14;100265.41;;;16.21;100.00
55679;BME280;41573;51.446;-2.018;2023-06-22T01:12:49;100266.53;;;16.18;100.00
55679;BME280;41573;51.446;-2.018;2023-06-22T01:15:32;100266.94;;;16.14;100.00
55679;BME280;41573;51.446;-2.018;2023-06-22T01:18:05;100253.53;;;16.14;100.00
55679;BME280;41573;51.446;-2.018;2023-06-22T01:20:34;100255.22;;;16.15;100.00
55679;BME280;41573;51.446;-2.018;2023-06-22T01:23:27;100241.06;;;16.13;100.00
55679;BME280;41573;51.446;-2.018;2023-06-22T01:26:05;100238.38;;;16.13;100.00
55679;BME280;41573;51.446;-2.018;2023-06-22T01:31:04;100235.84;;;16.11;100.00
55679;BME280;41573;51.446;-2.018;2023-06-22T01:33:33;100236.69;;;16.12;100.00
55679;BME280;41573;51.446;-2.018;2023-06-22T01:36:01;100220.31;;;16.15;100.00
55679;BME280;41573;51.446;-2.018;2023-06-22T01:38:28;100209.09;;;16.10;100.00
55679;BME280;41573;51.446;-2.018;2023-06-22T01:40:54;100197.91;;;16.05;100.00
55679;BME280;41573;51.446;-2.018;2023-06-22T01:43:21;100197.34;;;16.01;100.00
55679;BME280;41573;51.446;-2.018;2023-06-22T01:45:48;100223.31;;;15.81;100.00
55679;BME280;41573;51.446;-2.018;2023-06-22T01:48:14;100248.75;;;15.65;100.00
55679;BME280;41573;51.446;-2.018;2023-06-22T01:50:40;100270.03;;;15.57;100.00
55679;BME280;41573;51.446;-2.018;2023-06-22T01:53:05;100149.28;;;15.57;100.00
55679;BME280;41573;51.446;-2.018;2023-06-22T01:55:32;100097.72;;;15.54;100.00
55679;BME280;41573;51.446;-2.018;2023-06-22T01:57:57;100085.00;;;15.56;100.00
55679;BME280;41573;51.446;-2.018;2023-06-22T02:00:25;100055.34;;;15.57;100.00
55679;BME280;41573;51.446;-2.018;2023-06-22T02:03:03;100054.91;;;15.52;100.00
55679;BME280;41573;51.446;-2.018;2023-06-22T02:05:38;100036.09;;;15.52;100.00
55679;BME280;41573;51.446;-2.018;2023-06-22T02:08:09;100041.47;;;15.52;100.00
55679;BME280;41573;51.446;-2.018;2023-06-22T02:10:38;100049.41;;;15.54;100.00
55679;BME280;41573;51.446;-2.018;2023-06-22T02:13:06;100064.66;;;15.53;100.00
55679;BME280;41573;51.446;-2.018;2023-06-22T02:15:32;100059.56;;;15.50;100.00
55679;BME280;41573;51.446;-2.018;2023-06-22T02:17:57;100084.13;;;15.45;100.00
55679;BME280;41573;51.446;-2.018;2023-06-22T02:20:24;100105.88;;;15.42;100.00
55679;BME280;41573;51.446;-2.018;2023-06-22T02:22:49;100091.88;;;15.39;100.00
55679;BME280;41573;51.446;-2.018;2023-06-22T02:25:15;100092.84;;;15.38;100.00
55679;BME280;41573;51.446;-2.018;2023-06-22T02:27:40;100099.34;;;15.35;100.00
55679;BME280;41573;51.446;-2.018;2023-06-22T02:30:09;100098.22;;;15.38;100.00
55679;BME280;41573;51.446;-2.018;2023-06-22T02:32:35;100125.03;;;15.38;100.00
55679;BME280;41573;51.446;-2.018;2023-06-22T02:35:01;100161.34;;;15.42;100.00
55679;BME280;41573;51.446;-2.018;2023-06-22T02:37:30;100162.09;;;15.44;100.00
55679;BME280;41573;51.446;-2.018;2023-06-22T02:39:55;100185.00;;;15.48;100.00
55679;BME280;41573;51.446;-2.018;2023-06-22T02:42:21;100187.81;;;15.56;100.00
55679;BME280;41573;51.446;-2.018;2023-06-22T02:44:47;100194.19;;;15.55;100.00
55679;BME280;41573;51.446;-2.018;2023-06-22T02:47:12;100193.94;;;15.58;100.00
55679;BME280;41573;51.446;-2.018;2023-06-22T02:49:38;100184.72;;;15.51;100.00
55679;BME280;41573;51.446;-2.018;2023-06-22T02:52:03;100195.72;;;15.48;100.00
55679;BME280;41573;51.446;-2.018;2023-06-22T02:54:29;100194.97;;;15.46;100.00
55679;BME280;41573;51.446;-2.018;2023-06-22T02:56:54;100218.88;;;15.49;100.00
55679;BME280;41573;51.446;-2.018;2023-06-22T02:59:19;100216.91;;;15.51;100.00
55679;BME280;41573;51.446;-2.018;2023-06-22T03:01:51;100214.22;;;15.51;100.00
55679;BME280;41573;51.446;-2.018;2023-06-22T03:04:17;100213.22;;;15.52;100.00
55679;BME280;41573;51.446;-2.018;2023-06-22T03:06:43;100200.81;;;15.51;100.00
55679;BME280;41573;51.446;-2.018;2023-06-22T03:09:08;100223.06;;;15.42;100.00
55679;BME280;41573;51.446;-2.018;2023-06-22T03:11:34;100211.16;;;15.34;100.00
55679;BME280;41573;51.446;-2.018;2023-06-22T03:14:01;100174.16;;;15.28;100.00
55679;BME280;41573;51.446;-2.018;2023-06-22T03:16:26;100187.63;;;15.17;100.00
55679;BME280;41573;51.446;-2.018;2023-06-22T03:18:52;100165.00;;;15.10;100.00
55679;BME280;41573;51.446;-2.018;2023-06-22T03:21:22;100149.19;;;15.07;100.00
55679;BME280;41573;51.446;-2.018;2023-06-22T03:23:48;100131.38;;;15.06;100.00
55679;BME280;41573;51.446;-2.018;2023-06-22T03:26:17;100118.94;;;15.05;100.00
55679;BME280;41573;51.446;-2.018;2023-06-22T03:28:42;100107.66;;;15.01;100.00
55679;BME280;41573;51.446;-2.018;2023-06-22T03:31:08;100106.78;;;15.00;100.00
55679;BME280;41573;51.446;-2.018;2023-06-22T03:33:33;100079.13;;;15.00;100.00
55679;BME280;41573;51.446;-2.018;2023-06-22T03:35:58;100071.78;;;15.02;100.00
55679;BME280;41573;51.446;-2.018;2023-06-22T03:38:24;100054.50;;;15.16;100.00
55679;BME280;41573;51.446;-2.018;2023-06-22T03:40:49;100036.00;;;15.13;100.00
55679;BME280;41573;51.446;-2.018;2023-06-22T03:43:15;100000.88;;;15.16;100.00
55679;BME280;41573;51.446;-2.018;2023-06-22T03:45:40;99946.53;;;15.14;100.00
55679;BME280;41573;51.446;-2.018;2023-06-22T03:48:05;99889.03;;;14.97;100.00
55679;BME280;41573;51.446;-2.018;2023-06-22T03:50:31;99842.88;;;14.83;100.00
55679;BME280;41573;51.446;-2.018;2023-06-22T03:52:56;99799.13;;;14.73;100.00
55679;BME280;41573;51.446;-2.018;2023-06-22T03:55:22;99750.59;;;14.67;100.00
55679;BME280;41573;51.446;-2.018;2023-06-22T03:57:47;99720.66;;;14.61;100.00
55679;BME280;41573;51.446;-2.018;2023-06-22T04:00:13;99683.16;;;14.61;100.00
55679;BME280;41573;51.446;-2.018;2023-06-22T04:02:40;99675.25;;;14.50;100.00
55679;BME280;41573;51.446;-2.018;2023-06-22T04:05:06;99656.50;;;14.50;100.00
55679;BME280;41573;51.446;-2.018;2023-06-22T04:07:31;99620.25;;;14.46;100.00
55679;BME280;41573;51.446;-2.018;2023-06-22T04:09:57;99598.81;;;14.46;100.00
55679;BME280;41573;51.446;-2.018;2023-06-22T04:12:22;99580.75;;;14.48;100.00
55679;BME280;41573;51.446;-2.018;2023-06-22T04:14:47;99567.38;;;14.48;100.00
55679;BME280;41573;51.446;-2.018;2023-06-22T04:17:13;99558.50;;;14.47;100.00
55679;BME280;41573;51.446;-2.018;2023-06-22T04:19:40;99541.59;;;14.47;100.00
55679;BME280;41573;51.446;-2.018;2023-06-22T04:22:05;99527.19;;;14.48;100.00
55679;BME280;41573;51.446;-2.018;2023-06-22T04:24:32;99528.19;;;14.47;100.00
55679;BME280;41573;51.446;-2.018;2023-06-22T04:26:58;99525.53;;;14.47;100.00
55679;BME280;41573;51.446;-2.018;2023-06-22T04:29:25;99525.22;;;14.50;100.00
55679;BME280;41573;51.446;-2.018;2023-06-22T04:31:54;99526.06;;;14.51;100.00
55679;BME280;41573;51.446;-2.018;2023-06-22T04:34:21;99523.66;;;14.57;100.00
55679;BME280;41573;51.446;-2.018;2023-06-22T04:36:46;99518.31;;;14.57;100.00
55679;BME280;41573;51.446;-2.018;2023-06-22T04:39:12;99526.06;;;14.60;100.00
55679;BME280;41573;51.446;-2.018;2023-06-22T04:41:38;99524.63;;;14.56;100.00
55679;BME280;41573;51.446;-2.018;2023-06-22T04:44:14;99517.44;;;14.57;100.00
55679;BME280;41573;51.446;-2.018;2023-06-22T04:46:57;99513.25;;;14.54;100.00
55679;BME280;41573;51.446;-2.018;2023-06-22T04:49:27;99502.78;;;14.51;100.00
55679;BME280;41573;51.446;-2.018;2023-06-22T04:52:06;99497.47;;;14.41;100.00
55679;BME280;41573;51.446;-2.018;2023-06-22T04:54:32;99503.25;;;14.37;100.00
55679;BME280;41573;51.446;-2.018;2023-06-22T04:57:02;99497.91;;;14.27;100.00
55679;BME280;41573;51.446;-2.018;2023-06-22T04:59:29;99500.72;;;14.25;100.00
55679;BME280;41573;51.446;-2.018;2023-06-22T05:02:00;99498.63;;;14.19;100.00
55679;BME280;41573;51.446;-2.018;2023-06-22T05:04:27;99499.88;;;14.15;100.00
55679;BME280;41573;51.446;-2.018;2023-06-22T05:06:53;99503.28;;;14.17;100.00
55679;BME280;41573;51.446;-2.018;2023-06-22T05:09:20;99504.25;;;14.16;100.00
55679;BME280;41573;51.446;-2.018;2023-06-22T05:11:46;99520.72;;;14.21;100.00
55679;BME280;41573;51.446;-2.018;2023-06-22T05:14:12;99517.31;;;14.58;100.00
55679;BME280;41573;51.446;-2.018;2023-06-22T05:16:38;99519.59;;;14.34;100.00
55679;BME280;41573;51.446;-2.018;2023-06-22T05:19:03;99525.38;;;14.29;100.00
55679;BME280;41573;51.446;-2.018;2023-06-22T05:21:30;99527.50;;;14.35;100.00
55679;BME280;41573;51.446;-2.018;2023-06-22T05:23:56;99538.91;;;14.37;100.00
55679;BME280;41573;51.446;-2.018;2023-06-22T05:26:26;99523.97;;;14.44;100.00
55679;BME280;41573;51.446;-2.018;2023-06-22T05:28:52;99514.50;;;14.50;100.00
55679;BME280;41573;51.446;-2.018;2023-06-22T05:31:17;99525.94;;;14.62;100.00
55679;BME280;41573;51.446;-2.018;2023-06-22T05:33:45;99532.25;;;14.71;100.00
55679;BME280;41573;51.446;-2.018;2023-06-22T05:36:11;99522.66;;;14.68;100.00
55679;BME280;41573;51.446;-2.018;2023-06-22T05:38:38;99530.44;;;14.71;100.00
55679;BME280;41573;51.446;-2.018;2023-06-22T05:41:03;99533.94;;;14.72;100.00
55679;BME280;41573;51.446;-2.018;2023-06-22T05:43:29;99532.25;;;14.71;100.00
55679;BME280;41573;51.446;-2.018;2023-06-22T05:45:54;99545.25;;;14.75;100.00
55679;BME280;41573;51.446;-2.018;2023-06-22T05:48:20;99543.25;;;14.77;100.00
55679;BME280;41573;51.446;-2.018;2023-06-22T05:50:45;99541.25;;;14.79;100.00
55679;BME280;41573;51.446;-2.018;2023-06-22T05:53:11;99541.53;;;14.86;100.00
55679;BME280;41573;51.446;-2.018;2023-06-22T05:55:36;99554.91;;;14.96;100.00
55679;BME280;41573;51.446;-2.018;2023-06-22T05:58:01;99567.97;;;15.09;100.00
55679;BME280;41573;51.446;-2.018;2023-06-22T06:00:28;99575.84;;;15.20;100.00
55679;BME280;41573;51.446;-2.018;2023-06-22T06:02:53;99565.22;;;15.28;100.00
55679;BME280;41573;51.446;-2.018;2023-06-22T06:05:19;99559.38;;;15.43;100.00
55679;BME280;41573;51.446;-2.018;2023-06-22T06:07:45;99552.13;;;15.53;100.00
55679;BME280;41573;51.446;-2.018;2023-06-22T06:10:11;99552.78;;;15.65;100.00
55679;BME280;41573;51.446;-2.018;2023-06-22T06:12:36;99563.28;;;15.76;100.00
55679;BME280;41573;51.446;-2.018;2023-06-22T06:15:02;99550.38;;;15.90;100.00
55679;BME280;41573;51.446;-2.018;2023-06-22T06:17:28;99544.63;;;16.02;100.00
55679;BME280;41573;51.446;-2.018;2023-06-22T06:19:53;99540.00;;;16.13;100.00
55679;BME280;41573;51.446;-2.018;2023-06-22T06:22:18;99528.34;;;16.22;100.00
55679;BME280;41573;51.446;-2.018;2023-06-22T06:24:46;99518.53;;;16.31;100.00
55679;BME280;41573;51.446;-2.018;2023-06-22T06:27:12;99505.59;;;16.34;100.00
55679;BME280;41573;51.446;-2.018;2023-06-22T06:29:38;99503.53;;;16.46;100.00
55679;BME280;41573;51.446;-2.018;2023-06-22T06:32:03;99492.97;;;16.53;100.00
55679;BME280;41573;51.446;-2.018;2023-06-22T06:34:29;99488.34;;;16.63;100.00
55679;BME280;41573;51.446;-2.018;2023-06-22T06:36:54;99481.69;;;16.76;100.00
55679;BME280;41573;51.446;-2.018;2023-06-22T06:39:19;99492.44;;;16.76;100.00
55679;BME280;41573;51.446;-2.018;2023-06-22T06:41:45;99493.13;;;16.78;100.00
55679;BME280;41573;51.446;-2.018;2023-06-22T06:44:11;99478.22;;;16.83;100.00
55679;BME280;41573;51.446;-2.018;2023-06-22T06:46:36;99466.00;;;16.89;100.00
55679;BME280;41573;51.446;-2.018;2023-06-22T06:49:03;99450.91;;;16.96;100.00
55679;BME280;41573;51.446;-2.018;2023-06-22T06:51:28;99443.22;;;17.01;100.00
55679;BME280;41573;51.446;-2.018;2023-06-22T06:53:53;99444.91;;;17.11;100.00
55679;BME280;41573;51.446;-2.018;2023-06-22T06:56:19;99444.41;;;17.15;100.00
55679;BME280;41573;51.446;-2.018;2023-06-22T06:58:44;99421.25;;;17.31;100.00
55679;BME280;41573;51.446;-2.018;2023-06-22T07:01:11;99399.25;;;17.44;100.00
55679;BME280;41573;51.446;-2.018;2023-06-22T07:03:37;99406.50;;;17.51;100.00
55679;BME280;41573;51.446;-2.018;2023-06-22T07:06:02;99395.06;;;17.57;100.00
55679;BME280;41573;51.446;-2.018;2023-06-22T07:08:28;99386.84;;;17.67;100.00
55679;BME280;41573;51.446;-2.018;2023-06-22T07:10:54;99371.88;;;17.73;100.00
55679;BME280;41573;51.446;-2.018;2023-06-22T07:13:19;99353.84;;;17.82;100.00
55679;BME280;41573;51.446;-2.018;2023-06-22T07:15:45;99388.50;;;17.77;100.00
55679;BME280;41573;51.446;-2.018;2023-06-22T07:18:10;99365.13;;;17.85;100.00
55679;BME280;41573;51.446;-2.018;2023-06-22T07:20:35;99345.75;;;17.90;100.00
55679;BME280;41573;51.446;-2.018;2023-06-22T07:23:01;99340.06;;;18.01;100.00
55679;BME280;41573;51.446;-2.018;2023-06-22T07:25:26;99333.94;;;18.32;100.00
55679;BME280;41573;51.446;-2.018;2023-06-22T07:28:06;99315.53;;;18.44;100.00
55679;BME280;41573;51.446;-2.018;2023-06-22T07:30:32;99309.34;;;18.27;100.00
55679;BME280;41573;51.446;-2.018;2023-06-22T07:32:58;99301.75;;;18.31;100.00
55679;BME280;41573;51.446;-2.018;2023-06-22T07:35:25;99287.41;;;18.38;100.00
55679;BME280;41573;51.446;-2.018;2023-06-22T07:37:50;99283.66;;;18.48;100.00
55679;BME280;41573;51.446;-2.018;2023-06-22T07:40:16;99265.78;;;18.55;100.00
55679;BME280;41573;51.446;-2.018;2023-06-22T07:42:41;99267.44;;;18.56;100.00
55679;BME280;41573;51.446;-2.018;2023-06-22T07:45:07;99263.00;;;18.63;100.00
55679;BME280;41573;51.446;-2.018;2023-06-22T07:47:34;99252.91;;;18.65;100.00
55679;BME280;41573;51.446;-2.018;2023-06-22T07:50:01;99250.63;;;18.77;100.00
55679;BME280;41573;51.446;-2.018;2023-06-22T07:52:28;99242.69;;;18.84;100.00
55679;BME280;41573;51.446;-2.018;2023-06-22T07:54:53;99245.00;;;18.95;100.00
55679;BME280;41573;51.446;-2.018;2023-06-22T07:57:19;99242.13;;;18.97;100.00
55679;BME280;41573;51.446;-2.018;2023-06-22T07:59:45;99246.00;;;18.94;100.00
55679;BME280;41573;51.446;-2.018;2023-06-22T08:02:11;99229.28;;;18.99;100.00
55679;BME280;41573;51.446;-2.018;2023-06-22T08:04:36;99230.59;;;19.03;100.00
55679;BME280;41573;51.446;-2.018;2023-06-22T08:07:02;99230.03;;;19.07;100.00
55679;BME280;41573;51.446;-2.018;2023-06-22T08:09:29;99239.47;;;19.11;100.00
55679;BME280;41573;51.446;-2.018;2023-06-22T08:11:55;99248.50;;;19.19;100.00
55679;BME280;41573;51.446;-2.018;2023-06-22T08:14:22;99252.84;;;19.28;100.00
55679;BME280;41573;51.446;-2.018;2023-06-22T08:16:47;99254.16;;;19.32;100.00
55679;BME280;41573;51.446;-2.018;2023-06-22T08:19:12;99255.47;;;19.36;100.00
55679;BME280;41573;51.446;-2.018;2023-06-22T08:21:38;99250.34;;;19.41;100.00
55679;BME280;41573;51.446;-2.018;2023-06-22T08:24:04;99256.69;;;19.49;100.00
55679;BME280;41573;51.446;-2.018;2023-06-22T08:26:29;99264.91;;;19.55;100.00
55679;BME280;41573;51.446;-2.018;2023-06-22T08:28:54;99274.63;;;19.64;100.00
55679;BME280;41573;51.446;-2.018;2023-06-22T08:31:20;99270.81;;;19.74;100.00
55679;BME280;41573;51.446;-2.018;2023-06-22T08:33:45;99279.88;;;19.81;100.00
55679;BME280;41573;51.446;-2.018;2023-06-22T08:36:11;99284.09;;;19.84;100.00
55679;BME280;41573;51.446;-2.018;2023-06-22T08:38:38;99279.63;;;19.91;100.00
55679;BME280;41573;51.446;-2.018;2023-06-22T08:41:03;99286.34;;;19.95;100.00
55679;BME280;41573;51.446;-2.018;2023-06-22T08:43:29;99292.66;;;20.02;100.00
55679;BME280;41573;51.446;-2.018;2023-06-22T08:45:54;99301.25;;;20.06;100.00
55679;BME280;41573;51.446;-2.018;2023-06-22T08:48:19;99301.53;;;20.11;100.00
55679;BME280;41573;51.446;-2.018;2023-06-22T08:50:45;99297.03;;;20.18;100.00
55679;BME280;41573;51.446;-2.018;2023-06-22T08:53:10;99293.88;;;20.29;100.00
55679;BME280;41573;51.446;-2.018;2023-06-22T08:55:35;99307.22;;;20.31;100.00
55679;BME280;41573;51.446;-2.018;2023-06-22T08:58:01;99301.44;;;20.34;100.00
55679;BME280;41573;51.446;-2.018;2023-06-22T09:00:26;99314.22;;;20.40;100.00
55679;BME280;41573;51.446;-2.018;2023-06-22T09:02:54;99316.53;;;20.43;100.00
55679;BME280;41573;51.446;-2.018;2023-06-22T09:05:24;99316.16;;;20.46;100.00
55679;BME280;41573;51.446;-2.018;2023-06-22T09:07:51;99313.53;;;20.53;100.00
55679;BME280;41573;51.446;-2.018;2023-06-22T09:10:16;99314.03;;;20.57;100.00
55679;BME280;41573;51.446;-2.018;2023-06-22T09:12:42;99321.00;;;20.66;100.00
55679;BME280;41573;51.446;-2.018;2023-06-22T09:15:08;99316.09;;;20.70;100.00
55679;BME280;41573;51.446;-2.018;2023-06-22T09:17:33;99318.84;;;20.76;100.00
55679;BME280;41573;51.446;-2.018;2023-06-22T09:19:59;99316.13;;;20.76;100.00
55679;BME280;41573;51.446;-2.018;2023-06-22T09:22:25;99317.19;;;20.75;100.00
55679;BME280;41573;51.446;-2.018;2023-06-22T09:24:54;99338.06;;;20.81;100.00
55679;BME280;41573;51.446;-2.018;2023-06-22T09:27:20;99335.81;;;20.85;100.00
55679;BME280;41573;51.446;-2.018;2023-06-22T09:29:45;99348.41;;;20.93;100.00
55679;BME280;41573;51.446;-2.018;2023-06-22T09:32:11;99337.84;;;20.98;100.00
55679;BME280;41573;51.446;-2.018;2023-06-22T09:34:36;99331.94;;;21.09;100.00
55679;BME280;41573;51.446;-2.018;2023-06-22T09:37:01;99338.09;;;21.03;100.00
55679;BME280;41573;51.446;-2.018;2023-06-22T09:39:27;99341.38;;;20.98;100.00
55679;BME280;41573;51.446;-2.018;2023-06-22T09:41:52;99342.50;;;21.04;100.00
55679;BME280;41573;51.446;-2.018;2023-06-22T09:44:18;99347.25;;;21.02;100.00
55679;BME280;41573;51.446;-2.018;2023-06-22T09:46:43;99351.44;;;21.05;100.00
55679;BME280;41573;51.446;-2.018;2023-06-22T09:49:09;99345.88;;;21.28;100.00
55679;BME280;41573;51.446;-2.018;2023-06-22T09:51:34;99363.53;;;21.24;100.00
55679;BME280;41573;51.446;-2.018;2023-06-22T09:53:59;99365.94;;;21.33;100.00
55679;BME280;41573;51.446;-2.018;2023-06-22T09:56:25;99414.22;;;21.30;100.00
55679;BME280;41573;51.446;-2.018;2023-06-22T09:58:53;99478.59;;;21.49;100.00
55679;BME280;41573;51.446;-2.018;2023-06-22T10:01:19;99628.44;;;21.65;100.00
55679;BME280;41573;51.446;-2.018;2023-06-22T10:03:46;99769.81;;;21.83;100.00
55679;BME280;41573;51.446;-2.018;2023-06-22T10:06:11;99801.31;;;21.99;100.00
55679;BME280;41573;51.446;-2.018;2023-06-22T10:08:36;99743.56;;;21.99;100.00
55679;BME280;41573;51.446;-2.018;2023-06-22T10:11:03;99790.66;;;21.98;100.00
55679;BME280;41573;51.446;-2.018;2023-06-22T10:13:28;99825.53;;;22.01;100.00
55679;BME280;41573;51.446;-2.018;2023-06-22T10:15:54;99886.84;;;22.02;100.00
55679;BME280;41573;51.446;-2.018;2023-06-22T10:18:20;99957.34;;;22.02;100.00
55679;BME280;41573;51.446;-2.018;2023-06-22T10:20:48;99961.00;;;22.09;100.00
55679;BME280;41573;51.446;-2.018;2023-06-22T10:23:13;99956.53;;;22.16;100.00
55679;BME280;41573;51.446;-2.018;2023-06-22T10:25:38;100011.03;;;22.21;100.00
55679;BME280;41573;51.446;-2.018;2023-06-22T10:28:04;100050.34;;;22.26;100.00
55679;BME280;41573;51.446;-2.018;2023-06-22T10:30:29;100069.28;;;22.34;100.00
55679;BME280;41573;51.446;-2.018;2023-06-22T10:32:54;99941.63;;;22.35;100.00
55679;BME280;41573;51.446;-2.018;2023-06-22T10:35:20;99949.78;;;22.50;100.00
55679;BME280;41573;51.446;-2.018;2023-06-22T10:37:46;100000.66;;;22.48;100.00
55679;BME280;41573;51.446;-2.018;2023-06-22T10:40:15;100030.31;;;22.35;100.00
55679;BME280;41573;51.446;-2.018;2023-06-22T10:42:41;100051.84;;;22.28;100.00
55679;BME280;41573;51.446;-2.018;2023-06-22T10:45:07;100001.00;;;22.30;100.00
55679;BME280;41573;51.446;-2.018;2023-06-22T10:47:34;99921.28;;;22.31;100.00
55679;BME280;41573;51.446;-2.018;2023-06-22T10:49:59;99862.28;;;22.18;100.00
55679;BME280;41573;51.446;-2.018;2023-06-22T10:52:24;99827.75;;;22.27;100.00
55679;BME280;41573;51.446;-2.018;2023-06-22T10:54:50;99802.72;;;22.10;100.00
55679;BME280;41573;51.446;-2.018;2023-06-22T10:57:15;99792.03;;;22.09;100.00
55679;BME280;41573;51.446;-2.018;2023-06-22T10:59:41;99774.78;;;21.95;100.00
55679;BME280;41573;51.446;-2.018;2023-06-22T11:02:06;99784.84;;;21.71;100.00
55679;BME280;41573;51.446;-2.018;2023-06-22T11:04:31;99829.69;;;21.74;100.00
55679;BME280;41573;51.446;-2.018;2023-06-22T11:06:57;99877.78;;;21.95;100.00
55679;BME280;41573;51.446;-2.018;2023-06-22T11:09:22;99925.47;;;22.04;100.00
55679;BME280;41573;51.446;-2.018;2023-06-22T11:11:51;99900.16;;;22.27;100.00
55679;BME280;41573;51.446;-2.018;2023-06-22T11:14:18;99969.94;;;22.33;100.00
55679;BME280;41573;51.446;-2.018;2023-06-22T11:16:44;99975.69;;;22.38;100.00
55679;BME280;41573;51.446;-2.018;2023-06-22T11:19:09;99870.91;;;22.52;100.00
55679;BME280;41573;51.446;-2.018;2023-06-22T11:21:34;99812.31;;;22.72;100.00
55679;BME280;41573;51.446;-2.018;2023-06-22T11:24:00;99769.53;;;22.75;100.00
55679;BME280;41573;51.446;-2.018;2023-06-22T11:26:26;99739.22;;;22.71;100.00
55679;BME280;41573;51.446;-2.018;2023-06-22T11:28:54;99737.69;;;22.62;100.00
55679;BME280;41573;51.446;-2.018;2023-06-22T11:31:20;99751.94;;;22.49;100.00
55679;BME280;41573;51.446;-2.018;2023-06-22T11:33:45;99736.22;;;22.44;100.00
55679;BME280;41573;51.446;-2.018;2023-06-22T11:36:12;99733.50;;;22.44;100.00
55679;BME280;41573;51.446;-2.018;2023-06-22T11:38:37;99751.25;;;22.62;100.00
55679;BME280;41573;51.446;-2.018;2023-06-22T11:41:05;99766.63;;;22.76;100.00
55679;BME280;41573;51.446;-2.018;2023-06-22T11:43:31;99820.03;;;22.90;100.00
55679;BME280;41573;51.446;-2.018;2023-06-22T11:45:56;99912.03;;;23.15;100.00
55679;BME280;41573;51.446;-2.018;2023-06-22T11:48:24;99849.44;;;23.23;100.00
55679;BME280;41573;51.446;-2.018;2023-06-22T11:50:49;99848.94;;;23.13;100.00
55679;BME280;41573;51.446;-2.018;2023-06-22T11:53:15;99830.75;;;23.14;100.00
55679;BME280;41573;51.446;-2.018;2023-06-22T11:55:44;99803.28;;;22.87;100.00
55679;BME280;41573;51.446;-2.018;2023-06-22T11:58:09;99798.53;;;22.74;100.00
55679;BME280;41573;51.446;-2.018;2023-06-22T12:00:36;99787.66;;;22.52;100.00
55679;BME280;41573;51.446;-2.018;2023-06-22T12:03:01;99799.84;;;22.42;100.00
55679;BME280;41573;51.446;-2.018;2023-06-22T12:05:26;99811.03;;;22.24;100.00
55679;BME280;41573;51.446;-2.018;2023-06-22T12:07:55;99823.19;;;22.28;100.00
55679;BME280;41573;51.446;-2.018;2023-06-22T12:10:21;99788.31;;;22.40;100.00
55679;BME280;41573;51.446;-2.018;2023-06-22T12:12:47;99768.16;;;22.64;100.00
55679;BME280;41573;51.446;-2.018;2023-06-22T12:15:12;99800.94;;;22.84;100.00
55679;BME280;41573;51.446;-2.018;2023-06-22T12:17:38;99831.50;;;23.07;100.00
55679;BME280;41573;51.446;-2.018;2023-06-22T12:20:04;99836.25;;;23.20;100.00
55679;BME280;41573;51.446;-2.018;2023-06-22T12:22:34;99909.38;;;23.37;100.00
55679;BME280;41573;51.446;-2.018;2023-06-22T12:25:00;99938.59;;;23.56;100.00
55679;BME280;41573;51.446;-2.018;2023-06-22T12:27:26;99872.22;;;23.44;100.00
55679;BME280;41573;51.446;-2.018;2023-06-22T12:29:51;99915.56;;;23.31;100.00
55679;BME280;41573;51.446;-2.018;2023-06-22T12:32:17;99872.16;;;23.37;100.00
55679;BME280;41573;51.446;-2.018;2023-06-22T12:34:43;99858.47;;;23.46;100.00
55679;BME280;41573;51.446;-2.018;2023-06-22T12:37:09;99916.81;;;23.50;100.00